Time;durP1;ratioP1;P1;durP2;ratioP2;P2;SDS_P1;SDS_P2;PMS_P1;PMS_P2;Temp;Humidity;BMP_temperature;BMP_pressure;BME280_temperature;BME280_humidity;BME280_pressure;Samples;Min_cycle;Max_cycle;Signal;HPM_P1;HPM_P2
2023/02/18 00:00:29;;;;;;;;;;;;;;;12.82;68.76;100729.78;1072920;54;20759;-83
2023/02/18 00:01:48;;;;;;;;;;;;;;;12.83;68.86;100719.88;1088372;54;20014;-84
2023/02/18 00:50:17;;;;;;;;;;;;;;;12.91;68.45;100728.91;1088018;54;19939;-80
2023/02/18 01:54:47;;;;;;;;;;;;;;;12.70;69.17;100696.91;1087035;54;20625;-80
2023/02/18 01:56:17;;;;;;;;;;;;;;;12.73;68.89;100699.28;1088349;54;19995;-80
2023/02/18 01:57:49;;;;;;;;;;;;;;;12.68;69.11;100698.00;1088407;54;19950;-81
2023/02/18 01:59:26;;;;;;;;;;;;;;;12.72;68.93;100696.75;1088482;54;19957;-82
2023/02/18 02:00:39;;;;;;;;;;;;;;;12.73;68.74;100706.50;1088374;54;19943;-81
2023/02/18 02:03:22;;;;;;;;;;;;;;;12.68;68.94;100692.63;1088058;54;19942;-81
2023/02/18 02:04:50;;;;;;;;;;;;;;;12.64;69.33;100684.91;1088231;54;19927;-81
2023/02/18 02:13:57;;;;;;;;;;;;;;;12.68;68.87;100679.22;1087147;54;19942;-79
2023/02/18 02:18:04;;;;;;;;;;;;;;;12.75;68.52;100691.09;1087082;54;19938;-78
2023/02/18 02:19:23;;;;;;;;;;;;;;;12.68;68.53;100695.31;1087705;46;19971;-78
2023/02/18 02:22:44;;;;;;;;;;;;;;;12.67;68.28;100685.56;1087397;54;19983;-78
2023/02/18 02:33:39;;;;;;;;;;;;;;;12.70;68.33;100674.56;1086971;54;19980;-82
2023/02/18 02:34:51;;;;;;;;;;;;;;;12.62;68.34;100675.28;1087275;46;19943;-82
2023/02/18 02:36:05;;;;;;;;;;;;;;;12.63;68.65;100680.53;1087158;54;19942;-82
2023/02/18 02:37:11;;;;;;;;;;;;;;;12.63;68.44;100672.47;1087246;54;19951;-82
2023/02/18 02:38:18;;;;;;;;;;;;;;;12.66;68.18;100675.88;1087238;54;19960;-82
2023/02/18 02:39:25;;;;;;;;;;;;;;;12.63;68.41;100677.84;1087148;54;19942;-81
2023/02/18 02:40:35;;;;;;;;;;;;;;;12.67;68.49;100682.91;1087158;54;19950;-83
2023/02/18 02:41:42;;;;;;;;;;;;;;;12.66;68.55;100667.81;1087233;54;19968;-84
2023/02/18 02:42:49;;;;;;;;;;;;;;;12.63;68.43;100667.09;1088517;46;19976;-83
2023/02/18 02:43:55;;;;;;;;;;;;;;;12.64;68.48;100668.81;1086822;54;20376;-81
2023/02/18 02:45:03;;;;;;;;;;;;;;;12.64;68.65;100657.22;1087440;46;19946;-82
2023/02/18 02:46:08;;;;;;;;;;;;;;;12.63;68.50;100664.44;1086813;54;20018;-84
2023/02/18 02:47:13;;;;;;;;;;;;;;;12.66;68.52;100670.50;1086830;54;19943;-82
2023/02/18 02:48:18;;;;;;;;;;;;;;;12.64;68.71;100663.44;1086809;54;19946;-81
2023/02/18 02:49:29;;;;;;;;;;;;;;;12.59;68.61;100665.69;1087077;54;20543;-81
2023/02/18 02:50:37;;;;;;;;;;;;;;;12.62;68.53;100662.72;1086915;54;19954;-84
2023/02/18 02:51:43;;;;;;;;;;;;;;;12.62;68.64;100654.69;1088780;39;20424;-80
2023/02/18 02:52:46;;;;;;;;;;;;;;;12.57;68.98;100659.63;1086837;54;19965;-82
2023/02/18 02:53:50;;;;;;;;;;;;;;;12.59;68.61;100659.50;1086772;54;19934;-82
2023/02/18 02:54:51;;;;;;;;;;;;;;;12.62;68.81;100659.19;1086799;54;19943;-81
2023/02/18 02:55:55;;;;;;;;;;;;;;;12.59;68.74;100648.75;1087882;39;20431;-84
2023/02/18 02:57:08;;;;;;;;;;;;;;;12.60;68.57;100655.81;1088192;46;19950;-81
2023/02/18 02:58:16;;;;;;;;;;;;;;;12.63;68.12;100652.84;1086613;54;20101;-81
2023/02/18 02:59:22;;;;;;;;;;;;;;;12.59;68.42;100660.31;1086989;54;19942;-82
2023/02/18 03:00:33;;;;;;;;;;;;;;;12.67;68.08;100650.72;1086891;54;19957;-79
2023/02/18 03:01:40;;;;;;;;;;;;;;;12.64;68.28;100657.22;1087279;54;20784;-82
2023/02/18 03:02:54;;;;;;;;;;;;;;;12.66;68.46;100644.50;1086745;54;19975;-80
2023/02/18 03:04:03;;;;;;;;;;;;;;;12.74;68.06;100646.47;1086202;54;19943;-79
2023/02/18 03:05:17;;;;;;;;;;;;;;;12.70;68.16;100643.25;1087080;39;20365;-81
2023/02/18 03:06:33;;;;;;;;;;;;;;;12.60;68.55;100639.72;1086632;54;19951;-82
2023/02/18 03:07:48;;;;;;;;;;;;;;;12.64;68.43;100639.31;1087042;39;20383;-81
2023/02/18 03:08:54;;;;;;;;;;;;;;;12.64;68.16;100633.06;1086584;54;19946;-80
2023/02/18 03:10:09;;;;;;;;;;;;;;;12.61;68.37;100634.22;1086699;54;19970;-81
2023/02/18 03:11:14;;;;;;;;;;;;;;;12.62;68.02;100632.38;1086457;54;19950;-80
2023/02/18 03:12:20;;;;;;;;;;;;;;;12.60;68.25;100640.56;1086806;54;19954;-80
2023/02/18 03:13:28;;;;;;;;;;;;;;;12.62;68.01;100649.31;1086588;54;19946;-85
2023/02/18 03:14:35;;;;;;;;;;;;;;;12.71;67.70;100641.41;1086548;54;19950;-80
2023/02/18 03:15:41;;;;;;;;;;;;;;;12.67;67.98;100634.63;1087885;39;20462;-83
2023/02/18 03:16:45;;;;;;;;;;;;;;;12.63;68.21;100640.28;1087758;54;19946;-81
2023/02/18 03:17:53;;;;;;;;;;;;;;;12.57;68.26;100630.13;1094243;46;19958;-82
2023/02/18 03:18:58;;;;;;;;;;;;;;;12.65;68.21;100640.13;1087036;54;19938;-81
2023/02/18 03:20:06;;;;;;;;;;;;;;;12.68;68.12;100641.69;1087694;47;19946;-80
2023/02/18 03:21:09;;;;;;;;;;;;;;;12.58;68.01;100641.72;1089799;46;19942;-83
2023/02/18 03:22:20;;;;;;;;;;;;;;;12.59;68.11;100632.66;1087872;46;19938;-84
2023/02/18 03:23:24;;;;;;;;;;;;;;;12.60;68.41;100645.94;1087279;54;19979;-80
2023/02/18 03:24:31;;;;;;;;;;;;;;;12.55;68.19;100642.84;1086601;54;20002;-81
2023/02/18 03:25:33;;;;;;;;;;;;;;;12.51;68.82;100635.22;1086633;54;19942;-80
2023/02/18 03:26:39;;;;;;;;;;;;;;;12.58;68.44;100633.66;1086950;54;19950;-81
2023/02/18 03:27:43;;;;;;;;;;;;;;;12.50;68.50;100629.00;1087082;54;19943;-80
2023/02/18 03:28:47;;;;;;;;;;;;;;;12.56;68.46;100646.34;1087156;54;19947;-85
2023/02/18 03:29:51;;;;;;;;;;;;;;;12.50;69.06;100650.47;1087128;47;20031;-82
2023/02/18 03:30:58;;;;;;;;;;;;;;;12.49;69.19;100638.03;1087333;47;19938;-82
2023/02/18 03:32:02;;;;;;;;;;;;;;;12.44;69.28;100634.94;1087035;54;19958;-83
2023/02/18 03:33:07;;;;;;;;;;;;;;;12.43;69.89;100644.81;1087039;54;19969;-83
2023/02/18 03:34:10;;;;;;;;;;;;;;;12.47;69.62;100648.91;1088823;39;20360;-80
2023/02/18 03:35:15;;;;;;;;;;;;;;;12.48;69.68;100652.44;1086669;54;19942;-81
2023/02/18 03:36:17;;;;;;;;;;;;;;;12.46;69.53;100646.38;1086596;54;19946;-81
2023/02/18 03:37:26;;;;;;;;;;;;;;;12.50;69.72;100642.41;1086782;54;19946;-79
2023/02/18 03:38:29;;;;;;;;;;;;;;;12.44;69.73;100634.94;1086563;54;20420;-81
2023/02/18 03:39:35;;;;;;;;;;;;;;;12.43;69.61;100649.34;1086746;54;20519;-80
2023/02/18 03:40:37;;;;;;;;;;;;;;;12.42;69.76;100643.13;1086815;54;19962;-82
2023/02/18 03:41:41;;;;;;;;;;;;;;;12.35;70.18;100641.16;1086825;54;19951;-79
2023/02/18 03:42:43;;;;;;;;;;;;;;;12.38;69.85;100646.22;1087064;54;19927;-83
2023/02/18 03:43:51;;;;;;;;;;;;;;;12.41;69.58;100649.50;1086826;54;19974;-80
2023/02/18 03:44:52;;;;;;;;;;;;;;;12.36;70.07;100658.94;1086856;54;19962;-81
2023/02/18 03:45:55;;;;;;;;;;;;;;;12.35;70.05;100657.25;1087073;54;19927;-81
2023/02/18 03:46:57;;;;;;;;;;;;;;;12.37;70.13;100661.47;1087045;47;19943;-79
2023/02/18 03:48:00;;;;;;;;;;;;;;;12.36;69.85;100654.41;1086722;54;20004;-79
2023/02/18 03:49:01;;;;;;;;;;;;;;;12.37;69.86;100655.28;1087167;54;20441;-79
2023/02/18 03:50:05;;;;;;;;;;;;;;;12.36;70.12;100645.53;1087526;47;19950;-81
2023/02/18 03:51:07;;;;;;;;;;;;;;;12.32;70.22;100653.03;1087364;54;19947;-81
2023/02/18 03:52:10;;;;;;;;;;;;;;;12.38;70.17;100646.22;1087192;54;19947;-79
2023/02/18 03:53:14;;;;;;;;;;;;;;;12.38;70.35;100638.19;1086090;54;19954;-79
2023/02/18 03:54:19;;;;;;;;;;;;;;;12.31;70.27;100638.75;1086563;54;20456;-80
2023/02/18 03:55:20;;;;;;;;;;;;;;;12.35;70.03;100635.81;1087095;31;20530;-79
2023/02/18 03:56:24;;;;;;;;;;;;;;;12.35;70.04;100635.81;1086098;54;19951;-79
2023/02/18 03:57:25;;;;;;;;;;;;;;;12.35;70.43;100633.13;1086141;54;19951;-79
2023/02/18 03:58:29;;;;;;;;;;;;;;;12.40;70.24;100638.88;1085730;54;20472;-80
2023/02/18 03:59:30;;;;;;;;;;;;;;;12.32;70.36;100624.38;1087557;39;20419;-81
2023/02/18 04:00:33;;;;;;;;;;;;;;;12.42;70.36;100632.38;1086330;39;20220;-79
2023/02/18 04:01:34;;;;;;;;;;;;;;;12.47;69.67;100630.13;1085960;54;19950;-80
2023/02/18 04:02:38;;;;;;;;;;;;;;;12.38;70.33;100628.31;1086340;54;19950;-80
2023/02/18 04:03:39;;;;;;;;;;;;;;;12.32;70.72;100620.84;1086353;54;19954;-78
2023/02/18 04:04:43;;;;;;;;;;;;;;;12.30;70.67;100618.28;1085967;54;19971;-81
2023/02/18 04:05:44;;;;;;;;;;;;;;;12.30;71.18;100622.81;1087019;54;19951;-83
2023/02/18 04:06:48;;;;;;;;;;;;;;;12.27;71.14;100623.97;1088039;47;20012;-83
2023/02/18 04:07:49;;;;;;;;;;;;;;;12.27;71.16;100620.41;1087049;54;19946;-81
2023/02/18 04:08:55;;;;;;;;;;;;;;;12.37;70.72;100626.63;1086783;54;20001;-81
2023/02/18 04:09:56;;;;;;;;;;;;;;;12.29;71.26;100634.53;1086852;54;19957;-83
2023/02/18 04:11:01;;;;;;;;;;;;;;;12.24;71.72;100624.22;1088167;47;19978;-82
2023/02/18 04:12:02;;;;;;;;;;;;;;;12.17;71.93;100633.84;1087124;54;19935;-81
2023/02/18 04:13:06;;;;;;;;;;;;;;;12.21;71.90;100624.50;1086839;54;20019;-81
2023/02/18 04:14:07;;;;;;;;;;;;;;;12.23;71.79;100624.38;1087065;54;19946;-82
2023/02/18 04:15:12;;;;;;;;;;;;;;;12.26;71.79;100626.75;1087394;39;20379;-79
2023/02/18 04:16:13;;;;;;;;;;;;;;;12.22;71.50;100636.91;1087230;54;19966;-81
2023/02/18 04:17:17;;;;;;;;;;;;;;;12.24;71.64;100634.97;1087223;54;19947;-83
2023/02/18 04:18:18;;;;;;;;;;;;;;;12.35;71.45;100633.94;1087142;54;19939;-82
2023/02/18 04:19:22;;;;;;;;;;;;;;;12.29;71.28;100632.69;1086777;54;19957;-83
2023/02/18 04:20:24;;;;;;;;;;;;;;;12.27;71.39;100642.72;1087200;54;20511;-81
2023/02/18 04:21:27;;;;;;;;;;;;;;;12.27;71.93;100648.09;1087173;54;19951;-83
2023/02/18 04:22:28;;;;;;;;;;;;;;;12.19;72.11;100639.88;1087792;47;19926;-81
2023/02/18 04:23:32;;;;;;;;;;;;;;;12.20;71.98;100632.69;1087294;54;19947;-83
2023/02/18 04:24:36;;;;;;;;;;;;;;;12.29;71.76;100630.00;1087304;54;19974;-81
2023/02/18 04:25:39;;;;;;;;;;;;;;;12.24;71.81;100637.63;1087253;54;19935;-81
2023/02/18 04:26:41;;;;;;;;;;;;;;;12.16;72.21;100641.00;1087167;54;19950;-82
2023/02/18 04:27:44;;;;;;;;;;;;;;;12.20;72.07;100630.84;1087266;54;19977;-82
2023/02/18 04:28:45;;;;;;;;;;;;;;;12.22;71.62;100626.19;1087840;39;20420;-83
2023/02/18 04:29:49;;;;;;;;;;;;;;;12.26;71.90;100637.47;1087040;54;20023;-81
2023/02/18 04:30:50;;;;;;;;;;;;;;;12.37;71.37;100647.25;1087085;54;19958;-81
2023/02/18 04:31:54;;;;;;;;;;;;;;;12.28;71.53;100647.06;1087236;54;19961;-82
2023/02/18 04:32:55;;;;;;;;;;;;;;;12.41;71.34;100641.44;1087030;54;19953;-82
2023/02/18 04:33:59;;;;;;;;;;;;;;;12.32;71.17;100635.09;1089083;47;19946;-81
2023/02/18 04:35:00;;;;;;;;;;;;;;;12.28;71.55;100646.25;1087261;54;19957;-82
2023/02/18 04:36:04;;;;;;;;;;;;;;;12.26;71.61;100626.75;1087150;54;20006;-82
2023/02/18 04:37:07;;;;;;;;;;;;;;;12.29;71.25;100638.03;1087154;54;19942;-81
2023/02/18 04:38:09;;;;;;;;;;;;;;;12.30;71.40;100645.09;1087215;54;19951;-80
2023/02/18 04:39:13;;;;;;;;;;;;;;;12.35;70.94;100641.16;1087315;54;20546;-82
2023/02/18 04:40:16;;;;;;;;;;;;;;;12.33;71.24;100643.97;1086960;54;19949;-81
2023/02/18 04:41:20;;;;;;;;;;;;;;;12.42;70.74;100644.97;1087855;39;20353;-81
2023/02/18 04:42:21;;;;;;;;;;;;;;;12.35;70.82;100643.84;1088975;39;20297;-84
2023/02/18 04:43:25;;;;;;;;;;;;;;;12.45;70.83;100644.69;1086995;54;19966;-83
2023/02/18 04:44:26;;;;;;;;;;;;;;;12.37;71.01;100641.88;1087238;39;20534;-81
2023/02/18 04:45:30;;;;;;;;;;;;;;;12.33;70.74;100644.81;1087397;47;19945;-80
2023/02/18 04:46:31;;;;;;;;;;;;;;;12.32;70.91;100651.19;1086695;54;19942;-81
2023/02/18 04:47:35;;;;;;;;;;;;;;;12.31;70.88;100641.44;1086959;54;19986;-84
2023/02/18 04:48:36;;;;;;;;;;;;;;;12.35;71.21;100647.34;1088366;39;20578;-81
2023/02/18 04:49:40;;;;;;;;;;;;;;;12.38;70.86;100643.53;1086924;54;19938;-82
2023/02/18 04:50:42;;;;;;;;;;;;;;;12.32;71.26;100643.13;1086806;54;19951;-80
2023/02/18 04:51:47;;;;;;;;;;;;;;;12.35;70.99;100647.34;1086796;54;19954;-81
2023/02/18 04:52:48;;;;;;;;;;;;;;;12.38;71.28;100646.22;1086934;54;19970;-82
2023/02/18 04:53:52;;;;;;;;;;;;;;;12.40;71.06;100649.63;1086876;54;19951;-81
2023/02/18 04:54:54;;;;;;;;;;;;;;;12.41;70.79;100640.59;1086924;54;19946;-80
2023/02/18 04:56:01;;;;;;;;;;;;;;;12.40;70.90;100649.63;1086795;54;19939;-82
2023/02/18 04:57:02;;;;;;;;;;;;;;;12.45;70.47;100656.25;1086927;54;19958;-81
2023/02/18 04:58:05;;;;;;;;;;;;;;;12.42;71.00;100639.59;1086744;54;19950;-80
2023/02/18 04:59:06;;;;;;;;;;;;;;;12.46;71.05;100654.44;1086626;54;19953;-81
2023/02/18 05:00:11;;;;;;;;;;;;;;;12.47;71.02;100646.22;1086875;54;19939;-79
2023/02/18 05:01:12;;;;;;;;;;;;;;;12.40;71.28;100644.25;1089958;39;20400;-82
2023/02/18 05:02:16;;;;;;;;;;;;;;;12.42;71.29;100643.13;1086526;54;19954;-80
2023/02/18 05:03:17;;;;;;;;;;;;;;;12.50;71.12;100639.72;1086183;54;19950;-78
2023/02/18 05:04:21;;;;;;;;;;;;;;;12.54;71.12;100643.84;1086509;54;19950;-79
2023/02/18 05:05:22;;;;;;;;;;;;;;;12.43;71.75;100635.94;1087132;54;19950;-83
2023/02/18 05:06:34;;;;;;;;;;;;;;;12.41;71.69;100644.13;1088299;39;20360;-81
2023/02/18 05:07:36;;;;;;;;;;;;;;;12.41;72.04;100632.53;1087662;54;19947;-80
2023/02/18 05:08:47;;;;;;;;;;;;;;;12.41;71.81;100632.53;1087862;54;19946;-82
2023/02/18 05:09:48;;;;;;;;;;;;;;;12.39;71.46;100632.69;1087991;54;19942;-83
2023/02/18 05:10:54;;;;;;;;;;;;;;;12.28;71.69;100631.00;1088041;54;19982;-81
2023/02/18 05:12:01;;;;;;;;;;;;;;;12.29;72.17;100631.84;1088225;54;19943;-82
2023/02/18 05:13:02;;;;;;;;;;;;;;;12.25;71.81;100631.28;1090263;39;20423;-82
2023/02/18 05:14:07;;;;;;;;;;;;;;;12.27;71.72;100623.97;1088256;54;19935;-80
2023/02/18 05:15:09;;;;;;;;;;;;;;;12.30;71.46;100633.53;1088208;54;19942;-83
2023/02/18 05:16:14;;;;;;;;;;;;;;;12.32;71.26;100635.09;1088615;46;19951;-84
2023/02/18 05:17:15;;;;;;;;;;;;;;;12.33;70.84;100634.09;1089832;46;19946;-81
2023/02/18 05:18:18;;;;;;;;;;;;;;;12.32;70.27;100624.38;1088406;54;19943;-82
2023/02/18 05:19:20;;;;;;;;;;;;;;;12.36;70.45;100626.78;1088338;54;19938;-83
2023/02/18 05:20:23;;;;;;;;;;;;;;;12.32;70.16;100621.69;1087507;47;19939;-82
2023/02/18 05:21:26;;;;;;;;;;;;;;;12.36;70.20;100626.78;1088375;46;19950;-82
2023/02/18 05:22:30;;;;;;;;;;;;;;;12.35;70.27;100625.06;1090200;46;19979;-81
2023/02/18 05:23:32;;;;;;;;;;;;;;;12.39;69.97;100632.69;1092147;46;19974;-82
2023/02/18 05:24:36;;;;;;;;;;;;;;;12.38;70.20;100635.50;1088923;46;19949;-84
2023/02/18 05:25:37;;;;;;;;;;;;;;;12.37;70.21;100629.31;1088143;54;19935;-85
2023/02/18 05:26:41;;;;;;;;;;;;;;;12.43;69.63;100623.34;1089158;46;19939;-84
2023/02/18 05:27:52;;;;;;;;;;;;;;;12.45;69.52;100623.22;1088128;54;19923;-83
2023/02/18 05:28:56;;;;;;;;;;;;;;;12.48;69.81;100617.56;1090165;39;20267;-83
2023/02/18 05:29:58;;;;;;;;;;;;;;;12.47;69.77;100624.78;1089838;46;19954;-82
2023/02/18 05:31:02;;;;;;;;;;;;;;;12.43;69.56;100615.31;1087880;54;19938;-82
2023/02/18 05:32:04;;;;;;;;;;;;;;;12.43;69.54;100611.81;1087872;54;19949;-85
2023/02/18 05:33:07;;;;;;;;;;;;;;;12.44;69.47;100625.06;1087929;47;19939;-83
2023/02/18 05:34:08;;;;;;;;;;;;;;;12.41;69.77;100617.31;1087710;54;19930;-81
2023/02/18 05:35:20;;;;;;;;;;;;;;;12.40;69.70;100618.31;1087567;47;19946;-86
2023/02/18 05:36:27;;;;;;;;;;;;;;;12.33;70.00;100612.66;1087613;54;19927;-81
2023/02/18 05:37:38;;;;;;;;;;;;;;;12.35;70.25;100609.00;1087491;54;19977;-80
2023/02/18 05:38:44;;;;;;;;;;;;;;;12.37;70.05;100601.66;1087983;39;20543;-82
2023/02/18 05:39:54;;;;;;;;;;;;;;;12.32;70.21;100612.81;1086783;54;20055;-80
2023/02/18 05:41:04;;;;;;;;;;;;;;;12.35;69.67;100611.66;1086866;54;19951;-82
2023/02/18 05:42:19;;;;;;;;;;;;;;;12.32;69.68;100616.31;1086768;54;20118;-81
2023/02/18 05:44:28;;;;;;;;;;;;;;;12.36;69.56;100618.72;1087362;54;19962;-81
2023/02/18 05:44:57;;;;;;;;;;;;;;;12.34;69.95;100624.22;1086902;54;19939;-82
2023/02/18 05:46:12;;;;;;;;;;;;;;;12.40;69.42;100620.13;1086850;54;19983;-84
2023/02/18 05:47:23;;;;;;;;;;;;;;;12.31;69.62;100620.00;1086894;54;19966;-80
2023/02/18 05:48:30;;;;;;;;;;;;;;;12.32;69.90;100624.38;1086991;54;19971;-80
2023/02/18 05:49:38;;;;;;;;;;;;;;;12.35;69.42;100625.06;1087157;54;19953;-80
2023/02/18 05:50:45;;;;;;;;;;;;;;;12.37;69.30;100625.78;1086877;54;19950;-80
2023/02/18 05:51:57;;;;;;;;;;;;;;;12.41;69.25;100616.44;1086179;54;19953;-80
2023/02/18 05:53:03;;;;;;;;;;;;;;;12.43;69.30;100618.00;1086691;39;20505;-80
2023/02/18 05:54:19;;;;;;;;;;;;;;;12.38;69.20;100624.78;1088810;39;20803;-82
2023/02/18 05:55:27;;;;;;;;;;;;;;;12.37;69.43;100620.44;1086749;54;19953;-79
2023/02/18 05:56:34;;;;;;;;;;;;;;;12.52;69.23;100623.47;1086670;54;19942;-79
2023/02/18 05:57:36;;;;;;;;;;;;;;;12.54;68.99;100627.75;1086606;54;19949;-79
2023/02/18 05:58:43;;;;;;;;;;;;;;;12.47;68.98;100632.81;1086852;46;20015;-79
2023/02/18 05:59:47;;;;;;;;;;;;;;;12.38;69.16;100635.50;1087033;54;20399;-78
2023/02/18 06:00:48;;;;;;;;;;;;;;;12.38;69.18;100631.00;1086822;54;19942;-79
2023/02/18 06:01:52;;;;;;;;;;;;;;;12.34;69.58;100629.56;1087586;31;20434;-80
2023/02/18 06:02:53;;;;;;;;;;;;;;;12.42;69.20;100626.19;1087035;54;19947;-79
2023/02/18 06:03:57;;;;;;;;;;;;;;;12.40;69.51;100630.84;1086772;54;19950;-80
2023/02/18 06:04:58;;;;;;;;;;;;;;;12.46;69.22;100628.44;1086170;54;19945;-79
2023/02/18 06:06:01;;;;;;;;;;;;;;;12.42;69.38;100635.06;1086533;54;20488;-78
2023/02/18 06:07:03;;;;;;;;;;;;;;;12.31;69.53;100627.19;1086629;54;20455;-79
2023/02/18 06:08:07;;;;;;;;;;;;;;;12.31;69.55;100625.34;1086789;54;19951;-79
2023/02/18 06:09:08;;;;;;;;;;;;;;;12.24;69.94;100621.56;1086859;54;19942;-80
2023/02/18 06:10:12;;;;;;;;;;;;;;;12.30;69.50;100630.88;1086733;54;19966;-78
2023/02/18 06:11:14;;;;;;;;;;;;;;;12.26;69.90;100627.63;1086835;54;19954;-79
2023/02/18 06:12:18;;;;;;;;;;;;;;;12.28;69.65;100624.78;1087714;39;20372;-79
2023/02/18 06:13:19;;;;;;;;;;;;;;;12.28;69.58;100624.78;1086824;54;19958;-79
2023/02/18 06:14:25;;;;;;;;;;;;;;;12.33;69.88;100633.25;1087471;54;19957;-82
2023/02/18 06:15:27;;;;;;;;;;;;;;;12.35;69.46;100641.16;1087371;54;20331;-81
2023/02/18 06:16:31;;;;;;;;;;;;;;;12.45;69.28;100631.28;1087209;54;19982;-83
2023/02/18 06:17:35;;;;;;;;;;;;;;;12.46;68.98;100639.16;1087149;54;19946;-79
2023/02/18 06:18:36;;;;;;;;;;;;;;;12.41;69.20;100640.59;1086961;54;19990;-82
2023/02/18 06:19:40;;;;;;;;;;;;;;;12.33;69.57;100635.91;1087271;54;19974;-82
2023/02/18 06:20:42;;;;;;;;;;;;;;;12.40;69.67;100637.06;1086866;54;19958;-79
2023/02/18 06:21:47;;;;;;;;;;;;;;;12.36;69.69;100634.81;1088701;46;19982;-82
2023/02/18 06:22:48;;;;;;;;;;;;;;;12.39;69.30;100626.47;1087293;54;19953;-81
2023/02/18 06:23:52;;;;;;;;;;;;;;;12.34;69.47;100629.56;1087077;54;20011;-80
2023/02/18 06:24:53;;;;;;;;;;;;;;;12.40;69.54;100633.53;1087133;39;20230;-79
2023/02/18 06:25:58;;;;;;;;;;;;;;;12.42;69.27;100634.25;1086765;54;19954;-80
2023/02/18 06:26:59;;;;;;;;;;;;;;;12.40;69.47;100630.84;1086879;54;19951;-81
2023/02/18 06:28:03;;;;;;;;;;;;;;;12.40;69.37;100633.53;1086836;54;19946;-80
2023/02/18 06:29:04;;;;;;;;;;;;;;;12.41;69.30;100629.84;1086857;54;19957;-78
2023/02/18 06:30:12;;;;;;;;;;;;;;;12.32;69.16;100621.69;1087103;54;19943;-81
2023/02/18 06:31:13;;;;;;;;;;;;;;;12.34;69.57;100629.56;1087284;54;20488;-78
2023/02/18 06:32:17;;;;;;;;;;;;;;;12.39;69.14;100627.34;1087472;54;19943;-79
2023/02/18 06:33:18;;;;;;;;;;;;;;;12.38;69.17;100624.78;1087038;54;19947;-79
2023/02/18 06:34:22;;;;;;;;;;;;;;;12.37;69.08;100613.22;1086331;54;19950;-80
2023/02/18 06:35:23;;;;;;;;;;;;;;;12.42;69.17;100626.19;1086100;54;19950;-80
2023/02/18 06:36:27;;;;;;;;;;;;;;;12.37;69.10;100623.09;1086442;39;20435;-78
2023/02/18 06:37:28;;;;;;;;;;;;;;;12.40;69.03;100618.31;1086397;54;20483;-80
2023/02/18 06:38:32;;;;;;;;;;;;;;;12.40;69.13;100618.31;1086607;54;19951;-79
2023/02/18 06:39:33;;;;;;;;;;;;;;;12.43;69.02;100623.34;1086852;54;19939;-78
2023/02/18 06:40:37;;;;;;;;;;;;;;;12.39;68.93;100623.78;1086741;54;19943;-79
2023/02/18 06:41:39;;;;;;;;;;;;;;;12.40;68.96;100618.31;1086381;54;19947;-80
2023/02/18 06:42:43;;;;;;;;;;;;;;;12.39;69.30;100613.06;1086551;54;19962;-79
2023/02/18 06:43:44;;;;;;;;;;;;;;;12.49;69.11;100624.63;1086180;54;19951;-79
2023/02/18 06:44:48;;;;;;;;;;;;;;;12.55;68.81;100613.34;1086639;54;19989;-83
2023/02/18 06:45:52;;;;;;;;;;;;;;;12.54;68.53;100616.16;1087386;54;19942;-81
2023/02/18 06:46:56;;;;;;;;;;;;;;;12.49;68.71;100613.91;1087389;54;19927;-81
2023/02/18 06:47:57;;;;;;;;;;;;;;;12.52;68.66;100616.31;1087414;54;19942;-81
2023/02/18 06:49:01;;;;;;;;;;;;;;;12.41;69.22;100613.78;1087268;54;19949;-81
2023/02/18 06:50:03;;;;;;;;;;;;;;;12.40;69.41;100612.06;1087116;54;19970;-80
2023/02/18 06:51:07;;;;;;;;;;;;;;;12.46;69.28;100615.03;1087289;54;19942;-79
2023/02/18 06:52:08;;;;;;;;;;;;;;;12.46;68.97;100622.25;1086514;54;19947;-78
2023/02/18 06:53:13;;;;;;;;;;;;;;;12.43;69.43;100617.16;1086993;54;19950;-80
2023/02/18 06:54:14;;;;;;;;;;;;;;;12.41;69.33;100611.09;1087158;54;19950;-81
2023/02/18 06:55:18;;;;;;;;;;;;;;;12.44;69.25;100617.00;1086940;54;19961;-79
2023/02/18 06:56:19;;;;;;;;;;;;;;;12.40;69.41;100610.25;1086666;54;19950;-78
2023/02/18 06:57:23;;;;;;;;;;;;;;;12.40;69.01;100602.22;1087102;54;19942;-78
2023/02/18 06:58:24;;;;;;;;;;;;;;;12.45;68.94;100610.66;1086763;54;19950;-78
2023/02/18 06:59:28;;;;;;;;;;;;;;;12.44;68.96;100613.50;1087775;46;20001;-80
2023/02/18 07:00:29;;;;;;;;;;;;;;;12.44;69.00;100613.50;1087172;54;19942;-78
2023/02/18 07:01:35;;;;;;;;;;;;;;;12.41;68.85;100603.91;1087170;54;19949;-79
2023/02/18 07:02:37;;;;;;;;;;;;;;;12.44;68.72;100608.97;1086830;54;19942;-79
2023/02/18 07:03:40;;;;;;;;;;;;;;;12.39;69.21;100610.38;1087612;46;19954;-79
2023/02/18 07:04:44;;;;;;;;;;;;;;;12.45;68.80;100601.78;1087082;54;19939;-79
2023/02/18 07:05:48;;;;;;;;;;;;;;;12.46;69.10;100609.69;1086623;54;19942;-78
2023/02/18 07:06:49;;;;;;;;;;;;;;;12.49;68.88;100605.84;1086493;54;19970;-80
2023/02/18 07:07:53;;;;;;;;;;;;;;;12.45;69.06;100604.47;1087548;54;19951;-82
2023/02/18 07:08:54;;;;;;;;;;;;;;;12.41;68.82;100614.63;1087574;54;19950;-83
2023/02/18 07:09:59;;;;;;;;;;;;;;;12.40;68.81;100610.25;1087441;54;19954;-80
2023/02/18 07:11:00;;;;;;;;;;;;;;;12.45;69.00;100607.16;1087084;54;19955;-82
2023/02/18 07:12:04;;;;;;;;;;;;;;;12.46;68.40;100606.16;1088453;39;20423;-81
2023/02/18 07:13:05;;;;;;;;;;;;;;;12.49;68.45;100608.53;1087579;54;20942;-84
2023/02/18 07:14:09;;;;;;;;;;;;;;;12.50;68.54;100607.56;1087621;54;19960;-85
2023/02/18 07:15:10;;;;;;;;;;;;;;;12.54;68.48;100605.44;1087475;54;19950;-80
2023/02/18 07:16:14;;;;;;;;;;;;;;;12.50;68.51;100610.22;1086963;54;19953;-79
2023/02/18 07:17:18;;;;;;;;;;;;;;;12.48;68.76;100610.38;1088942;39;20596;-81
2023/02/18 07:18:25;;;;;;;;;;;;;;;12.46;68.68;100606.16;1087742;54;19942;-79
2023/02/18 07:19:27;;;;;;;;;;;;;;;12.52;68.62;100602.03;1087779;54;19966;-77
2023/02/18 07:20:31;;;;;;;;;;;;;;;12.56;68.09;100600.78;1087808;54;19927;-81
2023/02/18 07:21:32;;;;;;;;;;;;;;;12.53;68.00;100591.19;1087169;54;19939;-78
2023/02/18 07:22:37;;;;;;;;;;;;;;;12.49;68.22;100589.75;1089158;46;19942;-79
2023/02/18 07:23:38;;;;;;;;;;;;;;;12.49;68.22;100589.75;1088328;39;20608;-79
2023/02/18 07:24:44;;;;;;;;;;;;;;;12.51;67.95;100586.97;1087769;54;19942;-79
2023/02/18 07:25:45;;;;;;;;;;;;;;;12.53;68.05;100584.97;1087738;54;19965;-79
2023/02/18 07:26:49;;;;;;;;;;;;;;;12.53;67.73;100585.81;1087682;54;19950;-79
2023/02/18 07:27:50;;;;;;;;;;;;;;;12.58;67.71;100578.16;1087729;54;19998;-78
2023/02/18 07:28:54;;;;;;;;;;;;;;;12.55;67.88;100583.84;1087745;54;19942;-78
2023/02/18 07:30:23;;;;;;;;;;;;;;;;;;;;;
2023/02/18 07:33:13;;;;;;;;;;;;;;;12.56;67.67;100572.13;1088370;39;20510;-78
2023/02/18 07:34:14;;;;;;;;;;;;;;;12.57;67.49;100571.13;1087525;47;19938;-78
2023/02/18 07:35:20;;;;;;;;;;;;;;;12.53;67.53;100564.38;1087571;54;19939;-79
2023/02/18 07:36:21;;;;;;;;;;;;;;;12.57;67.32;100565.75;1087761;54;19942;-79
2023/02/18 07:37:25;;;;;;;;;;;;;;;12.57;67.35;100565.75;1088107;46;19965;-79
2023/02/18 07:38:32;;;;;;;;;;;;;;;12.56;67.67;100574.81;1088176;47;19965;-78
2023/02/18 08:37:39;;;;;;;;;;;;;;;13.27;61.64;100561.81;1087921;54;19963;-82
2023/02/18 08:38:42;;;;;;;;;;;;;;;13.39;61.54;100554.44;1087967;54;19949;-82
2023/02/18 08:39:58;;;;;;;;;;;;;;;13.39;61.40;100554.44;1091737;47;19930;-83
2023/02/18 08:41:03;;;;;;;;;;;;;;;13.37;61.61;100556.38;1089633;46;19943;-81
2023/02/18 08:42:30;;;;;;;;;;;;;;;13.40;61.32;100556.13;1088629;54;19953;-82
2023/02/18 08:43:34;;;;;;;;;;;;;;;13.51;61.25;100561.25;1088534;54;19950;-81
2023/02/18 08:44:37;;;;;;;;;;;;;;;13.46;60.95;100558.19;1088550;54;20004;-84
2023/02/18 08:45:53;;;;;;;;;;;;;;;13.39;61.49;100554.44;1088563;54;19958;-83
2023/02/18 08:46:57;;;;;;;;;;;;;;;13.43;61.18;100553.13;1088615;54;19954;-84
2023/02/18 08:48:05;;;;;;;;;;;;;;;13.41;61.29;100558.66;1088635;54;19926;-84
2023/02/18 08:49:09;;;;;;;;;;;;;;;13.41;61.53;100552.44;1088589;54;19942;-83
2023/02/18 08:50:11;;;;;;;;;;;;;;;13.41;61.20;100547.06;1088742;54;20681;-84